sensor_id;sensor_type;location;lat;lon;timestamp;P1;durP1;ratioP1;P2;durP2;ratioP2
15256;SDS011;7731;50.720;6.912;2022-07-23T00:01:09;22.10;;;18.17;;
15256;SDS011;7731;50.720;6.912;2022-07-23T00:03:39;21.00;;;18.80;;
15256;SDS011;7731;50.720;6.912;2022-07-23T00:06:09;20.90;;;18.80;;
15256;SDS011;7731;50.720;6.912;2022-07-23T00:08:40;19.95;;;17.85;;
15256;SDS011;7731;50.720;6.912;2022-07-23T00:11:10;20.45;;;18.35;;
15256;SDS011;7731;50.720;6.912;2022-07-23T00:13:43;19.70;;;17.60;;
15256;SDS011;7731;50.720;6.912;2022-07-23T00:16:14;22.52;;;18.73;;
15256;SDS011;7731;50.720;6.912;2022-07-23T00:18:44;19.55;;;17.27;;
15256;SDS011;7731;50.720;6.912;2022-07-23T00:21:14;20.15;;;18.05;;
15256;SDS011;7731;50.720;6.912;2022-07-23T00:23:44;19.08;;;17.27;;
15256;SDS011;7731;50.720;6.912;2022-07-23T00:26:15;19.73;;;17.25;;
15256;SDS011;7731;50.720;6.912;2022-07-23T00:28:48;19.30;;;17.50;;
15256;SDS011;7731;50.720;6.912;2022-07-23T00:31:18;20.30;;;18.17;;
15256;SDS011;7731;50.720;6.912;2022-07-23T00:33:48;20.55;;;18.40;;
15256;SDS011;7731;50.720;6.912;2022-07-23T00:36:23;21.02;;;18.83;;
15256;SDS011;7731;50.720;6.912;2022-07-23T00:38:53;20.23;;;18.13;;
15256;SDS011;7731;50.720;6.912;2022-07-23T00:41:24;20.42;;;18.33;;
15256;SDS011;7731;50.720;6.912;2022-07-23T00:44:02;20.58;;;18.38;;
15256;SDS011;7731;50.720;6.912;2022-07-23T00:46:45;21.13;;;18.90;;
15256;SDS011;7731;50.720;6.912;2022-07-23T00:49:19;20.55;;;18.48;;
15256;SDS011;7731;50.720;6.912;2022-07-23T00:51:50;21.15;;;18.73;;
15256;SDS011;7731;50.720;6.912;2022-07-23T00:54:21;20.17;;;18.15;;
15256;SDS011;7731;50.720;6.912;2022-07-23T00:56:55;21.00;;;19.00;;
15256;SDS011;7731;50.720;6.912;2022-07-23T00:59:28;20.90;;;18.70;;
15256;SDS011;7731;50.720;6.912;2022-07-23T01:01:59;22.42;;;20.10;;
15256;SDS011;7731;50.720;6.912;2022-07-23T01:04:29;21.17;;;18.85;;
15256;SDS011;7731;50.720;6.912;2022-07-23T01:07:00;22.45;;;20.05;;
15256;SDS011;7731;50.720;6.912;2022-07-23T01:09:31;22.25;;;19.90;;
15256;SDS011;7731;50.720;6.912;2022-07-23T01:12:01;22.80;;;20.40;;
15256;SDS011;7731;50.720;6.912;2022-07-23T01:14:35;26.02;;;21.08;;
15256;SDS011;7731;50.720;6.912;2022-07-23T01:17:05;22.60;;;20.25;;
15256;SDS011;7731;50.720;6.912;2022-07-23T01:19:36;22.65;;;20.23;;
15256;SDS011;7731;50.720;6.912;2022-07-23T01:22:06;22.45;;;20.15;;
15256;SDS011;7731;50.720;6.912;2022-07-23T01:24:40;22.88;;;20.55;;
15256;SDS011;7731;50.720;6.912;2022-07-23T01:27:10;20.15;;;18.08;;
15256;SDS011;7731;50.720;6.912;2022-07-23T01:29:41;22.50;;;20.17;;
15256;SDS011;7731;50.720;6.912;2022-07-23T01:32:11;22.90;;;20.23;;
15256;SDS011;7731;50.720;6.912;2022-07-23T01:34:42;22.98;;;20.25;;
15256;SDS011;7731;50.720;6.912;2022-07-23T01:37:12;22.20;;;19.55;;
15256;SDS011;7731;50.720;6.912;2022-07-23T01:39:45;19.73;;;17.73;;
15256;SDS011;7731;50.720;6.912;2022-07-23T01:42:15;22.05;;;19.88;;
15256;SDS011;7731;50.720;6.912;2022-07-23T01:44:46;21.85;;;19.70;;
15256;SDS011;7731;50.720;6.912;2022-07-23T01:47:16;22.15;;;19.95;;
15256;SDS011;7731;50.720;6.912;2022-07-23T01:49:47;20.77;;;18.58;;
15256;SDS011;7731;50.720;6.912;2022-07-23T01:52:17;21.45;;;18.50;;
15256;SDS011;7731;50.720;6.912;2022-07-23T01:54:50;20.25;;;18.05;;
15256;SDS011;7731;50.720;6.912;2022-07-23T01:57:20;21.85;;;19.25;;
15256;SDS011;7731;50.720;6.912;2022-07-23T01:59:51;21.38;;;18.40;;
15256;SDS011;7731;50.720;6.912;2022-07-23T02:02:21;21.75;;;19.45;;
15256;SDS011;7731;50.720;6.912;2022-07-23T02:04:51;19.83;;;17.80;;
15256;SDS011;7731;50.720;6.912;2022-07-23T02:07:21;20.13;;;17.95;;
15256;SDS011;7731;50.720;6.912;2022-07-23T02:09:54;18.67;;;16.75;;
15256;SDS011;7731;50.720;6.912;2022-07-23T02:12:24;18.38;;;16.38;;
15256;SDS011;7731;50.720;6.912;2022-07-23T02:14:55;18.00;;;16.00;;
15256;SDS011;7731;50.720;6.912;2022-07-23T02:17:25;18.50;;;16.55;;
15256;SDS011;7731;50.720;6.912;2022-07-23T02:19:55;20.52;;;17.48;;
15256;SDS011;7731;50.720;6.912;2022-07-23T02:22:26;19.48;;;17.48;;
15256;SDS011;7731;50.720;6.912;2022-07-23T02:24:58;19.50;;;17.40;;
15256;SDS011;7731;50.720;6.912;2022-07-23T02:27:29;18.77;;;16.30;;
15256;SDS011;7731;50.720;6.912;2022-07-23T02:29:59;17.25;;;15.35;;
15256;SDS011;7731;50.720;6.912;2022-07-23T02:32:29;18.63;;;16.73;;
15256;SDS011;7731;50.720;6.912;2022-07-23T02:35:00;17.70;;;15.93;;
15256;SDS011;7731;50.720;6.912;2022-07-23T02:37:30;17.67;;;14.77;;
15256;SDS011;7731;50.720;6.912;2022-07-23T02:40:04;17.95;;;15.20;;
15256;SDS011;7731;50.720;6.912;2022-07-23T02:42:36;16.00;;;14.48;;
15256;SDS011;7731;50.720;6.912;2022-07-23T02:45:06;16.95;;;14.98;;
15256;SDS011;7731;50.720;6.912;2022-07-23T02:47:38;17.17;;;15.18;;
15256;SDS011;7731;50.720;6.912;2022-07-23T02:50:08;17.33;;;15.00;;
15256;SDS011;7731;50.720;6.912;2022-07-23T02:52:39;15.75;;;14.05;;
15256;SDS011;7731;50.720;6.912;2022-07-23T02:55:12;15.95;;;14.25;;
15256;SDS011;7731;50.720;6.912;2022-07-23T02:57:42;14.32;;;12.93;;
15256;SDS011;7731;50.720;6.912;2022-07-23T03:00:12;14.98;;;13.35;;
15256;SDS011;7731;50.720;6.912;2022-07-23T03:02:43;14.35;;;12.90;;
15256;SDS011;7731;50.720;6.912;2022-07-23T03:05:13;13.30;;;11.85;;
15256;SDS011;7731;50.720;6.912;2022-07-23T03:07:44;14.50;;;12.95;;
15256;SDS011;7731;50.720;6.912;2022-07-23T03:10:17;14.77;;;13.10;;
15256;SDS011;7731;50.720;6.912;2022-07-23T03:12:47;14.18;;;12.63;;
15256;SDS011;7731;50.720;6.912;2022-07-23T03:15:17;15.50;;;14.00;;
15256;SDS011;7731;50.720;6.912;2022-07-23T03:17:48;14.75;;;13.20;;
15256;SDS011;7731;50.720;6.912;2022-07-23T03:20:18;15.25;;;13.75;;
15256;SDS011;7731;50.720;6.912;2022-07-23T03:22:49;14.60;;;13.05;;
15256;SDS011;7731;50.720;6.912;2022-07-23T03:25:21;13.98;;;12.57;;
15256;SDS011;7731;50.720;6.912;2022-07-23T03:27:52;16.08;;;13.95;;
15256;SDS011;7731;50.720;6.912;2022-07-23T03:30:22;14.57;;;13.07;;
15256;SDS011;7731;50.720;6.912;2022-07-23T03:32:53;16.88;;;13.63;;
15256;SDS011;7731;50.720;6.912;2022-07-23T03:35:23;16.67;;;12.98;;
15256;SDS011;7731;50.720;6.912;2022-07-23T03:37:53;14.25;;;12.80;;
15256;SDS011;7731;50.720;6.912;2022-07-23T03:40:26;13.00;;;11.35;;
15256;SDS011;7731;50.720;6.912;2022-07-23T03:42:57;15.07;;;13.43;;
15256;SDS011;7731;50.720;6.912;2022-07-23T03:45:27;15.35;;;13.73;;
15256;SDS011;7731;50.720;6.912;2022-07-23T03:47:58;15.32;;;13.93;;
15256;SDS011;7731;50.720;6.912;2022-07-23T03:50:29;15.80;;;14.18;;
15256;SDS011;7731;50.720;6.912;2022-07-23T03:53:00;16.65;;;14.60;;
15256;SDS011;7731;50.720;6.912;2022-07-23T03:55:33;18.30;;;16.35;;
15256;SDS011;7731;50.720;6.912;2022-07-23T03:58:03;18.95;;;16.95;;
15256;SDS011;7731;50.720;6.912;2022-07-23T04:00:34;18.42;;;16.63;;
15256;SDS011;7731;50.720;6.912;2022-07-23T04:03:04;19.08;;;17.17;;
15256;SDS011;7731;50.720;6.912;2022-07-23T04:05:34;20.42;;;18.23;;
15256;SDS011;7731;50.720;6.912;2022-07-23T04:08:05;21.35;;;19.15;;
15256;SDS011;7731;50.720;6.912;2022-07-23T04:10:38;21.48;;;19.17;;
15256;SDS011;7731;50.720;6.912;2022-07-23T04:13:08;22.27;;;19.95;;
15256;SDS011;7731;50.720;6.912;2022-07-23T04:15:38;24.20;;;20.73;;
15256;SDS011;7731;50.720;6.912;2022-07-23T04:18:09;22.35;;;20.00;;
15256;SDS011;7731;50.720;6.912;2022-07-23T04:20:39;23.05;;;20.55;;
15256;SDS011;7731;50.720;6.912;2022-07-23T04:23:09;22.60;;;20.30;;
15256;SDS011;7731;50.720;6.912;2022-07-23T04:25:42;23.20;;;20.48;;
15256;SDS011;7731;50.720;6.912;2022-07-23T04:28:13;22.85;;;19.90;;
15256;SDS011;7731;50.720;6.912;2022-07-23T04:30:43;22.92;;;20.45;;
15256;SDS011;7731;50.720;6.912;2022-07-23T04:33:13;22.48;;;20.00;;
15256;SDS011;7731;50.720;6.912;2022-07-23T04:35:44;25.50;;;21.05;;
15256;SDS011;7731;50.720;6.912;2022-07-23T04:38:14;25.00;;;20.80;;
15256;SDS011;7731;50.720;6.912;2022-07-23T04:40:47;24.92;;;20.60;;
15256;SDS011;7731;50.720;6.912;2022-07-23T04:43:18;27.50;;;21.38;;
15256;SDS011;7731;50.720;6.912;2022-07-23T04:45:48;23.35;;;20.10;;
15256;SDS011;7731;50.720;6.912;2022-07-23T04:48:19;23.45;;;20.35;;
15256;SDS011;7731;50.720;6.912;2022-07-23T04:50:50;23.90;;;21.33;;
15256;SDS011;7731;50.720;6.912;2022-07-23T04:53:20;23.17;;;20.67;;
15256;SDS011;7731;50.720;6.912;2022-07-23T04:55:53;25.30;;;21.13;;
15256;SDS011;7731;50.720;6.912;2022-07-23T04:58:23;25.05;;;22.45;;
15256;SDS011;7731;50.720;6.912;2022-07-23T05:00:54;23.35;;;20.95;;
15256;SDS011;7731;50.720;6.912;2022-07-23T05:03:24;26.73;;;23.83;;
15256;SDS011;7731;50.720;6.912;2022-07-23T05:05:55;25.92;;;23.17;;
15256;SDS011;7731;50.720;6.912;2022-07-23T05:08:25;28.02;;;23.65;;
15256;SDS011;7731;50.720;6.912;2022-07-23T05:10:58;27.35;;;24.25;;
15256;SDS011;7731;50.720;6.912;2022-07-23T05:13:28;30.40;;;22.90;;
15256;SDS011;7731;50.720;6.912;2022-07-23T05:15:58;26.23;;;22.13;;
15256;SDS011;7731;50.720;6.912;2022-07-23T05:18:28;27.08;;;24.15;;
15256;SDS011;7731;50.720;6.912;2022-07-23T05:20:59;31.58;;;23.38;;
15256;SDS011;7731;50.720;6.912;2022-07-23T05:23:29;26.05;;;22.58;;
15256;SDS011;7731;50.720;6.912;2022-07-23T05:26:02;25.40;;;22.40;;
15256;SDS011;7731;50.720;6.912;2022-07-23T05:28:32;24.35;;;21.77;;
15256;SDS011;7731;50.720;6.912;2022-07-23T05:31:02;23.50;;;20.95;;
15256;SDS011;7731;50.720;6.912;2022-07-23T05:33:33;24.95;;;22.25;;
15256;SDS011;7731;50.720;6.912;2022-07-23T05:36:04;23.00;;;20.60;;
15256;SDS011;7731;50.720;6.912;2022-07-23T05:38:35;21.20;;;18.02;;
15256;SDS011;7731;50.720;6.912;2022-07-23T05:41:08;22.83;;;19.08;;
15256;SDS011;7731;50.720;6.912;2022-07-23T05:43:38;21.08;;;18.85;;
15256;SDS011;7731;50.720;6.912;2022-07-23T05:46:08;19.98;;;17.83;;
15256;SDS011;7731;50.720;6.912;2022-07-23T05:48:39;22.10;;;17.38;;
15256;SDS011;7731;50.720;6.912;2022-07-23T05:51:09;20.58;;;17.75;;
15256;SDS011;7731;50.720;6.912;2022-07-23T05:53:39;18.92;;;17.02;;
15256;SDS011;7731;50.720;6.912;2022-07-23T05:56:12;17.77;;;15.88;;
15256;SDS011;7731;50.720;6.912;2022-07-23T05:58:43;18.67;;;16.15;;
15256;SDS011;7731;50.720;6.912;2022-07-23T06:01:13;21.88;;;17.33;;
15256;SDS011;7731;50.720;6.912;2022-07-23T06:03:43;19.42;;;17.33;;
15256;SDS011;7731;50.720;6.912;2022-07-23T06:06:14;20.17;;;17.73;;
15256;SDS011;7731;50.720;6.912;2022-07-23T06:08:44;19.60;;;17.50;;
15256;SDS011;7731;50.720;6.912;2022-07-23T06:11:17;21.17;;;18.90;;
15256;SDS011;7731;50.720;6.912;2022-07-23T06:13:47;21.92;;;19.30;;
15256;SDS011;7731;50.720;6.912;2022-07-23T06:16:17;19.10;;;16.95;;
15256;SDS011;7731;50.720;6.912;2022-07-23T06:18:48;18.38;;;15.70;;
15256;SDS011;7731;50.720;6.912;2022-07-23T06:21:18;19.67;;;16.42;;
15256;SDS011;7731;50.720;6.912;2022-07-23T06:24:08;18.40;;;14.63;;
15256;SDS011;7731;50.720;6.912;2022-07-23T06:26:41;15.05;;;13.45;;
15256;SDS011;7731;50.720;6.912;2022-07-23T06:29:12;14.45;;;12.98;;
15256;SDS011;7731;50.720;6.912;2022-07-23T06:31:42;15.32;;;12.60;;
15256;SDS011;7731;50.720;6.912;2022-07-23T06:34:12;13.68;;;12.25;;
15256;SDS011;7731;50.720;6.912;2022-07-23T06:36:43;13.57;;;12.02;;
15256;SDS011;7731;50.720;6.912;2022-07-23T06:39:13;12.55;;;11.35;;
15256;SDS011;7731;50.720;6.912;2022-07-23T06:41:47;12.13;;;10.88;;
15256;SDS011;7731;50.720;6.912;2022-07-23T06:44:24;14.55;;;11.55;;
15256;SDS011;7731;50.720;6.912;2022-07-23T06:46:54;14.10;;;12.38;;
15256;SDS011;7731;50.720;6.912;2022-07-23T06:49:25;14.48;;;12.98;;
15256;SDS011;7731;50.720;6.912;2022-07-23T06:51:55;12.70;;;11.45;;
15256;SDS011;7731;50.720;6.912;2022-07-23T06:54:25;14.43;;;12.88;;
15256;SDS011;7731;50.720;6.912;2022-07-23T06:56:58;12.80;;;11.32;;
15256;SDS011;7731;50.720;6.912;2022-07-23T06:59:28;12.63;;;10.95;;
15256;SDS011;7731;50.720;6.912;2022-07-23T07:01:59;12.20;;;10.82;;
15256;SDS011;7731;50.720;6.912;2022-07-23T07:04:29;11.57;;;10.38;;
15256;SDS011;7731;50.720;6.912;2022-07-23T07:07:00;14.43;;;12.35;;
15256;SDS011;7731;50.720;6.912;2022-07-23T07:09:30;12.35;;;11.05;;
15256;SDS011;7731;50.720;6.912;2022-07-23T07:12:03;11.65;;;10.52;;
15256;SDS011;7731;50.720;6.912;2022-07-23T07:14:34;13.02;;;9.73;;
15256;SDS011;7731;50.720;6.912;2022-07-23T07:17:05;8.77;;;7.97;;
15256;SDS011;7731;50.720;6.912;2022-07-23T07:19:37;9.30;;;8.30;;
15256;SDS011;7731;50.720;6.912;2022-07-23T07:22:07;8.65;;;7.75;;
15256;SDS011;7731;50.720;6.912;2022-07-23T07:24:37;7.95;;;6.97;;
15256;SDS011;7731;50.720;6.912;2022-07-23T07:27:10;7.38;;;6.60;;
15256;SDS011;7731;50.720;6.912;2022-07-23T07:29:41;9.45;;;7.80;;
15256;SDS011;7731;50.720;6.912;2022-07-23T07:32:11;8.18;;;7.32;;
15256;SDS011;7731;50.720;6.912;2022-07-23T07:35:01;6.45;;;5.85;;
15256;SDS011;7731;50.720;6.912;2022-07-23T07:37:32;8.35;;;7.55;;
15256;SDS011;7731;50.720;6.912;2022-07-23T07:40:03;7.90;;;7.20;;
15256;SDS011;7731;50.720;6.912;2022-07-23T07:42:40;7.60;;;6.80;;
15256;SDS011;7731;50.720;6.912;2022-07-23T07:45:14;9.85;;;7.50;;
15256;SDS011;7731;50.720;6.912;2022-07-23T07:47:44;9.98;;;8.48;;
15256;SDS011;7731;50.720;6.912;2022-07-23T07:50:14;8.77;;;7.85;;
15256;SDS011;7731;50.720;6.912;2022-07-23T07:52:45;10.13;;;8.60;;
15256;SDS011;7731;50.720;6.912;2022-07-23T07:55:16;9.63;;;8.63;;
15256;SDS011;7731;50.720;6.912;2022-07-23T07:57:49;11.13;;;8.60;;
15256;SDS011;7731;50.720;6.912;2022-07-23T08:00:19;10.88;;;9.77;;
15256;SDS011;7731;50.720;6.912;2022-07-23T08:02:50;10.10;;;8.40;;
15256;SDS011;7731;50.720;6.912;2022-07-23T08:05:25;11.80;;;9.85;;
15256;SDS011;7731;50.720;6.912;2022-07-23T08:07:57;11.23;;;9.48;;
15256;SDS011;7731;50.720;6.912;2022-07-23T08:10:28;9.93;;;8.30;;
15256;SDS011;7731;50.720;6.912;2022-07-23T08:13:01;9.27;;;7.88;;
15256;SDS011;7731;50.720;6.912;2022-07-23T08:15:32;10.27;;;9.27;;
15256;SDS011;7731;50.720;6.912;2022-07-23T08:18:02;10.25;;;9.30;;
15256;SDS011;7731;50.720;6.912;2022-07-23T08:20:33;10.45;;;8.85;;
15256;SDS011;7731;50.720;6.912;2022-07-23T08:23:05;13.60;;;11.18;;
15256;SDS011;7731;50.720;6.912;2022-07-23T08:25:37;10.98;;;9.27;;
15256;SDS011;7731;50.720;6.912;2022-07-23T08:28:12;10.70;;;8.68;;
15256;SDS011;7731;50.720;6.912;2022-07-23T08:30:44;11.75;;;9.70;;
15256;SDS011;7731;50.720;6.912;2022-07-23T08:33:15;9.93;;;8.88;;
15256;SDS011;7731;50.720;6.912;2022-07-23T08:35:59;13.55;;;10.23;;
15256;SDS011;7731;50.720;6.912;2022-07-23T08:38:31;12.10;;;10.60;;
15256;SDS011;7731;50.720;6.912;2022-07-23T08:41:02;12.23;;;9.88;;
15256;SDS011;7731;50.720;6.912;2022-07-23T08:43:39;10.45;;;8.68;;
15256;SDS011;7731;50.720;6.912;2022-07-23T08:46:11;10.27;;;8.80;;
15256;SDS011;7731;50.720;6.912;2022-07-23T08:48:47;9.48;;;8.55;;
15256;SDS011;7731;50.720;6.912;2022-07-23T08:51:23;9.30;;;8.45;;
15256;SDS011;7731;50.720;6.912;2022-07-23T08:53:57;9.27;;;8.38;;
15256;SDS011;7731;50.720;6.912;2022-07-23T08:56:31;10.57;;;8.40;;
15256;SDS011;7731;50.720;6.912;2022-07-23T08:59:05;9.52;;;8.25;;
15256;SDS011;7731;50.720;6.912;2022-07-23T09:01:40;9.75;;;8.55;;
15256;SDS011;7731;50.720;6.912;2022-07-23T09:04:13;9.63;;;7.88;;
15256;SDS011;7731;50.720;6.912;2022-07-23T09:06:52;9.32;;;8.10;;
15256;SDS011;7731;50.720;6.912;2022-07-23T09:09:23;9.60;;;8.68;;
15256;SDS011;7731;50.720;6.912;2022-07-23T09:12:03;8.65;;;7.82;;
15256;SDS011;7731;50.720;6.912;2022-07-23T09:14:38;10.48;;;9.45;;
15256;SDS011;7731;50.720;6.912;2022-07-23T09:17:13;9.63;;;8.60;;
15256;SDS011;7731;50.720;6.912;2022-07-23T09:19:46;8.15;;;7.43;;
15256;SDS011;7731;50.720;6.912;2022-07-23T09:22:21;9.48;;;8.38;;
15256;SDS011;7731;50.720;6.912;2022-07-23T09:25:04;9.80;;;8.88;;
15256;SDS011;7731;50.720;6.912;2022-07-23T09:27:53;9.98;;;8.93;;
15256;SDS011;7731;50.720;6.912;2022-07-23T09:30:31;10.60;;;8.65;;
15256;SDS011;7731;50.720;6.912;2022-07-23T09:33:08;8.52;;;7.72;;
15256;SDS011;7731;50.720;6.912;2022-07-23T09:35:45;8.93;;;8.07;;
15256;SDS011;7731;50.720;6.912;2022-07-23T09:38:19;10.45;;;8.57;;
15256;SDS011;7731;50.720;6.912;2022-07-23T09:41:05;10.30;;;8.07;;
15256;SDS011;7731;50.720;6.912;2022-07-23T09:43:36;8.55;;;7.75;;
15256;SDS011;7731;50.720;6.912;2022-07-23T09:46:19;8.60;;;7.90;;
15256;SDS011;7731;50.720;6.912;2022-07-23T09:48:52;7.88;;;7.18;;
15256;SDS011;7731;50.720;6.912;2022-07-23T09:51:25;10.02;;;7.05;;
15256;SDS011;7731;50.720;6.912;2022-07-23T09:54:03;7.43;;;6.70;;
15256;SDS011;7731;50.720;6.912;2022-07-23T09:56:34;8.43;;;7.63;;
15256;SDS011;7731;50.720;6.912;2022-07-23T09:59:06;11.45;;;9.55;;
15256;SDS011;7731;50.720;6.912;2022-07-23T10:01:40;8.05;;;7.25;;
15256;SDS011;7731;50.720;6.912;2022-07-23T10:04:11;9.07;;;8.27;;
15256;SDS011;7731;50.720;6.912;2022-07-23T10:06:41;9.20;;;8.32;;
15256;SDS011;7731;50.720;6.912;2022-07-23T10:09:15;8.25;;;7.55;;
15256;SDS011;7731;50.720;6.912;2022-07-23T10:11:53;8.95;;;8.07;;
15256;SDS011;7731;50.720;6.912;2022-07-23T10:14:31;8.18;;;7.45;;
15256;SDS011;7731;50.720;6.912;2022-07-23T10:17:06;9.50;;;8.50;;
15256;SDS011;7731;50.720;6.912;2022-07-23T10:19:38;8.38;;;7.60;;
15256;SDS011;7731;50.720;6.912;2022-07-23T10:22:09;7.88;;;7.18;;
15256;SDS011;7731;50.720;6.912;2022-07-23T10:24:51;6.40;;;5.68;;
15256;SDS011;7731;50.720;6.912;2022-07-23T10:27:51;10.13;;;7.20;;
15256;SDS011;7731;50.720;6.912;2022-07-23T10:30:51;6.28;;;5.68;;
15256;SDS011;7731;50.720;6.912;2022-07-23T10:34:00;8.68;;;7.78;;
15256;SDS011;7731;50.720;6.912;2022-07-23T10:36:46;9.77;;;8.73;;
15256;SDS011;7731;50.720;6.912;2022-07-23T10:39:22;9.90;;;8.85;;
15256;SDS011;7731;50.720;6.912;2022-07-23T10:42:07;6.93;;;6.35;;
15256;SDS011;7731;50.720;6.912;2022-07-23T10:44:40;9.07;;;8.10;;
15256;SDS011;7731;50.720;6.912;2022-07-23T10:47:13;11.82;;;9.15;;
15256;SDS011;7731;50.720;6.912;2022-07-23T10:50:19;8.88;;;7.90;;
15256;SDS011;7731;50.720;6.912;2022-07-23T10:55:48;6.22;;;5.65;;
15256;SDS011;7731;50.720;6.912;2022-07-23T10:58:22;8.20;;;7.50;;
15256;SDS011;7731;50.720;6.912;2022-07-23T11:01:32;9.95;;;8.60;;
15256;SDS011;7731;50.720;6.912;2022-07-23T11:04:05;8.90;;;7.35;;
15256;SDS011;7731;50.720;6.912;2022-07-23T11:09:39;8.38;;;7.57;;
15256;SDS011;7731;50.720;6.912;2022-07-23T11:15:08;8.68;;;5.90;;
15256;SDS011;7731;50.720;6.912;2022-07-23T11:20:29;7.53;;;6.82;;
15256;SDS011;7731;50.720;6.912;2022-07-23T11:22:59;10.70;;;8.82;;
15256;SDS011;7731;50.720;6.912;2022-07-23T11:25:31;9.27;;;8.38;;
15256;SDS011;7731;50.720;6.912;2022-07-23T11:28:09;9.10;;;8.30;;
15256;SDS011;7731;50.720;6.912;2022-07-23T11:30:50;9.73;;;8.65;;
15256;SDS011;7731;50.720;6.912;2022-07-23T11:33:20;8.43;;;7.65;;
15256;SDS011;7731;50.720;6.912;2022-07-23T11:36:01;9.02;;;8.18;;
15256;SDS011;7731;50.720;6.912;2022-07-23T11:38:32;8.90;;;8.10;;
15256;SDS011;7731;50.720;6.912;2022-07-23T11:41:04;8.52;;;7.70;;
15256;SDS011;7731;50.720;6.912;2022-07-23T11:43:44;8.07;;;6.90;;
15256;SDS011;7731;50.720;6.912;2022-07-23T11:46:18;7.85;;;6.93;;
15256;SDS011;7731;50.720;6.912;2022-07-23T11:49:00;10.18;;;8.20;;
15256;SDS011;7731;50.720;6.912;2022-07-23T11:51:47;8.40;;;7.68;;
15256;SDS011;7731;50.720;6.912;2022-07-23T11:54:35;9.18;;;8.07;;
15256;SDS011;7731;50.720;6.912;2022-07-23T11:57:17;8.63;;;7.82;;
15256;SDS011;7731;50.720;6.912;2022-07-23T11:59:53;9.82;;;8.93;;
15256;SDS011;7731;50.720;6.912;2022-07-23T12:02:41;9.52;;;8.63;;
15256;SDS011;7731;50.720;6.912;2022-07-23T12:05:16;9.30;;;8.40;;
15256;SDS011;7731;50.720;6.912;2022-07-23T12:07:51;7.75;;;7.05;;
15256;SDS011;7731;50.720;6.912;2022-07-23T12:10:29;9.07;;;7.85;;
15256;SDS011;7731;50.720;6.912;2022-07-23T12:13:12;8.07;;;7.28;;
15256;SDS011;7731;50.720;6.912;2022-07-23T12:15:51;7.65;;;6.95;;
15256;SDS011;7731;50.720;6.912;2022-07-23T12:18:33;8.02;;;7.32;;
15256;SDS011;7731;50.720;6.912;2022-07-23T12:21:08;6.97;;;6.22;;
15256;SDS011;7731;50.720;6.912;2022-07-23T12:23:40;8.13;;;7.43;;
15256;SDS011;7731;50.720;6.912;2022-07-23T12:26:21;8.57;;;7.10;;
15256;SDS011;7731;50.720;6.912;2022-07-23T12:28:52;8.75;;;7.72;;
15256;SDS011;7731;50.720;6.912;2022-07-23T12:31:25;7.72;;;6.50;;
15256;SDS011;7731;50.720;6.912;2022-07-23T12:34:08;8.95;;;8.05;;
15256;SDS011;7731;50.720;6.912;2022-07-23T12:36:47;8.40;;;7.57;;
15256;SDS011;7731;50.720;6.912;2022-07-23T12:39:29;7.40;;;6.65;;
15256;SDS011;7731;50.720;6.912;2022-07-23T12:42:01;7.10;;;6.40;;
15256;SDS011;7731;50.720;6.912;2022-07-23T12:44:42;7.55;;;6.75;;
15256;SDS011;7731;50.720;6.912;2022-07-23T12:47:50;9.48;;;6.55;;
15256;SDS011;7731;50.720;6.912;2022-07-23T12:53:31;8.75;;;6.18;;
15256;SDS011;7731;50.720;6.912;2022-07-23T12:56:09;7.93;;;6.72;;
15256;SDS011;7731;50.720;6.912;2022-07-23T12:58:51;6.00;;;5.47;;
15256;SDS011;7731;50.720;6.912;2022-07-23T13:01:25;5.50;;;5.00;;
15256;SDS011;7731;50.720;6.912;2022-07-23T13:04:17;6.90;;;5.78;;
15256;SDS011;7731;50.720;6.912;2022-07-23T13:06:56;6.63;;;5.60;;
15256;SDS011;7731;50.720;6.912;2022-07-23T13:09:31;7.43;;;6.72;;
15256;SDS011;7731;50.720;6.912;2022-07-23T13:12:23;9.18;;;7.20;;
15256;SDS011;7731;50.720;6.912;2022-07-23T13:14:56;10.40;;;6.20;;
15256;SDS011;7731;50.720;6.912;2022-07-23T13:17:33;6.65;;;5.78;;
15256;SDS011;7731;50.720;6.912;2022-07-23T13:20:07;5.95;;;5.45;;
15256;SDS011;7731;50.720;6.912;2022-07-23T13:22:44;5.72;;;5.10;;
15256;SDS011;7731;50.720;6.912;2022-07-23T13:25:15;6.85;;;5.50;;
15256;SDS011;7731;50.720;6.912;2022-07-23T13:27:45;5.88;;;5.38;;
15256;SDS011;7731;50.720;6.912;2022-07-23T13:30:15;6.93;;;6.32;;
15256;SDS011;7731;50.720;6.912;2022-07-23T13:32:50;7.07;;;6.38;;
15256;SDS011;7731;50.720;6.912;2022-07-23T13:35:26;6.68;;;6.00;;
15256;SDS011;7731;50.720;6.912;2022-07-23T13:38:00;8.40;;;7.63;;
15256;SDS011;7731;50.720;6.912;2022-07-23T13:40:32;8.15;;;5.40;;
15256;SDS011;7731;50.720;6.912;2022-07-23T13:43:05;8.43;;;6.20;;
15256;SDS011;7731;50.720;6.912;2022-07-23T13:45:39;5.90;;;5.40;;
15256;SDS011;7731;50.720;6.912;2022-07-23T13:48:14;7.43;;;5.60;;
15256;SDS011;7731;50.720;6.912;2022-07-23T13:50:45;7.13;;;6.35;;
15256;SDS011;7731;50.720;6.912;2022-07-23T13:53:19;6.75;;;5.32;;
15256;SDS011;7731;50.720;6.912;2022-07-23T13:55:53;7.25;;;5.65;;
15256;SDS011;7731;50.720;6.912;2022-07-23T13:58:23;7.80;;;5.85;;
15256;SDS011;7731;50.720;6.912;2022-07-23T14:00:56;6.38;;;5.88;;
15256;SDS011;7731;50.720;6.912;2022-07-23T14:03:27;6.22;;;5.30;;
15256;SDS011;7731;50.720;6.912;2022-07-23T14:05:59;6.70;;;5.47;;
15256;SDS011;7731;50.720;6.912;2022-07-23T14:08:32;6.85;;;5.18;;
15256;SDS011;7731;50.720;6.912;2022-07-23T14:11:02;6.60;;;5.68;;
15256;SDS011;7731;50.720;6.912;2022-07-23T14:13:33;5.22;;;4.72;;
15256;SDS011;7731;50.720;6.912;2022-07-23T14:16:04;6.03;;;4.80;;
15256;SDS011;7731;50.720;6.912;2022-07-23T14:18:35;4.78;;;4.38;;
15256;SDS011;7731;50.720;6.912;2022-07-23T14:21:06;5.32;;;4.80;;
15256;SDS011;7731;50.720;6.912;2022-07-23T14:23:39;5.80;;;5.03;;
15256;SDS011;7731;50.720;6.912;2022-07-23T14:26:09;6.80;;;5.30;;
15256;SDS011;7731;50.720;6.912;2022-07-23T14:28:40;5.43;;;4.93;;
15256;SDS011;7731;50.720;6.912;2022-07-23T14:31:14;5.18;;;4.68;;
15256;SDS011;7731;50.720;6.912;2022-07-23T14:33:47;5.57;;;4.80;;
15256;SDS011;7731;50.720;6.912;2022-07-23T14:36:19;5.47;;;4.97;;
15256;SDS011;7731;50.720;6.912;2022-07-23T14:38:52;5.63;;;5.00;;
15256;SDS011;7731;50.720;6.912;2022-07-23T14:41:22;7.63;;;5.43;;
15256;SDS011;7731;50.720;6.912;2022-07-23T14:43:53;7.60;;;4.80;;
15256;SDS011;7731;50.720;6.912;2022-07-23T14:46:23;5.80;;;4.95;;
15256;SDS011;7731;50.720;6.912;2022-07-23T14:48:54;4.90;;;4.35;;
15256;SDS011;7731;50.720;6.912;2022-07-23T14:51:25;5.03;;;4.30;;
15256;SDS011;7731;50.720;6.912;2022-07-23T14:53:58;6.53;;;4.40;;
15256;SDS011;7731;50.720;6.912;2022-07-23T14:56:28;4.63;;;4.18;;
15256;SDS011;7731;50.720;6.912;2022-07-23T14:58:59;6.68;;;4.40;;
15256;SDS011;7731;50.720;6.912;2022-07-23T15:01:31;5.55;;;4.80;;
15256;SDS011;7731;50.720;6.912;2022-07-23T15:04:02;5.53;;;3.97;;
15256;SDS011;7731;50.720;6.912;2022-07-23T15:06:56;5.88;;;4.85;;
15256;SDS011;7731;50.720;6.912;2022-07-23T15:09:29;6.05;;;5.45;;
15256;SDS011;7731;50.720;6.912;2022-07-23T15:12:01;4.75;;;4.07;;
15256;SDS011;7731;50.720;6.912;2022-07-23T15:14:37;6.28;;;4.82;;
15256;SDS011;7731;50.720;6.912;2022-07-23T15:17:08;5.10;;;4.60;;
15256;SDS011;7731;50.720;6.912;2022-07-23T15:19:40;5.80;;;5.05;;
15256;SDS011;7731;50.720;6.912;2022-07-23T15:22:11;5.95;;;5.05;;
15256;SDS011;7731;50.720;6.912;2022-07-23T15:24:45;4.80;;;4.30;;
15256;SDS011;7731;50.720;6.912;2022-07-23T15:27:15;4.70;;;4.30;;
15256;SDS011;7731;50.720;6.912;2022-07-23T15:29:46;4.47;;;4.03;;
15256;SDS011;7731;50.720;6.912;2022-07-23T15:32:16;4.30;;;3.97;;
15256;SDS011;7731;50.720;6.912;2022-07-23T15:34:46;4.55;;;4.07;;
15256;SDS011;7731;50.720;6.912;2022-07-23T15:37:16;4.88;;;4.00;;
15256;SDS011;7731;50.720;6.912;2022-07-23T15:39:49;4.93;;;4.32;;